createdAt,value
2022-09-30T00:00:36.559Z,6.88
2022-09-30T00:03:07.194Z,6.95
2022-09-30T00:05:37.401Z,6.75
2022-09-30T00:08:07.081Z,6.93
2022-09-30T00:10:36.591Z,6.88
2022-09-30T00:13:05.989Z,7.47
2022-09-30T00:15:35.659Z,6.82
2022-09-30T00:18:08.414Z,6.55
2022-09-30T00:20:39.538Z,6.60
2022-09-30T00:23:10.954Z,6.28
2022-09-30T00:25:42.872Z,6.47
2022-09-30T00:28:13.541Z,6.90
2022-09-30T00:30:42.457Z,6.85
2022-09-30T00:33:13.686Z,7.20
2022-09-30T00:35:45.532Z,6.93
2022-09-30T00:38:16.144Z,6.97
2022-09-30T00:40:45.183Z,6.40
2022-09-30T00:43:17.858Z,6.57
2022-09-30T00:45:52.981Z,6.85
2022-09-30T00:50:56.799Z,6.57
2022-09-30T00:53:31.626Z,6.63
2022-09-30T00:56:06.454Z,6.78
2022-09-30T00:58:41.712Z,6.15
2022-09-30T01:01:13.782Z,7.05
2022-09-30T01:03:50.217Z,6.28
2022-09-30T01:06:23.359Z,6.75
2022-09-30T01:08:53.127Z,6.72
2022-09-30T01:11:22.781Z,6.97
2022-09-30T01:13:56.588Z,6.97
2022-09-30T01:16:41.562Z,7.28
2022-09-30T01:19:53.357Z,7.23
2022-09-30T01:22:36.797Z,7.00
2022-09-30T01:25:50.377Z,7.40
2022-09-30T01:29:05.334Z,6.82
2022-09-30T01:31:52.681Z,7.05
2022-09-30T01:34:37.886Z,6.55
2022-09-30T01:37:19.365Z,7.07
2022-09-30T01:40:06.022Z,7.40
2022-09-30T01:42:44.696Z,6.97
2022-09-30T01:45:20.484Z,7.07
2022-09-30T01:47:59.925Z,6.82
2022-09-30T01:50:40.815Z,6.95
2022-09-30T01:53:21.613Z,7.25
2022-09-30T01:55:59.443Z,8.20
2022-09-30T01:58:38.200Z,7.53
2022-09-30T02:01:14.604Z,7.03
2022-09-30T02:03:52.029Z,6.47
2022-09-30T02:06:27.288Z,6.65
2022-09-30T02:09:03.981Z,6.45
2022-09-30T02:11:37.966Z,7.25
2022-09-30T02:14:14.649Z,7.05
2022-09-30T02:16:57.948Z,7.28
2022-09-30T02:19:37.395Z,6.93
2022-09-30T02:22:14.798Z,7.43
2022-09-30T02:24:48.647Z,7.03
2022-09-30T02:27:23.838Z,7.75
2022-09-30T02:29:58.468Z,7.70
2022-09-30T02:32:32.005Z,7.15
2022-09-30T02:35:09.158Z,7.22
2022-09-30T02:37:42.829Z,7.93
2022-09-30T02:40:17.890Z,7.75
2022-09-30T02:42:49.125Z,8.18
2022-09-30T02:45:23.558Z,8.18
2022-09-30T02:48:11.567Z,8.10
2022-09-30T02:50:50.317Z,7.90
2022-09-30T02:53:28.750Z,6.85
2022-09-30T02:56:17.038Z,7.07
2022-09-30T02:58:47.175Z,8.02
2022-09-30T03:01:18.261Z,7.78
2022-09-30T03:03:51.901Z,6.97
2022-09-30T03:06:23.439Z,6.70
2022-09-30T03:08:57.564Z,7.53
2022-09-30T03:11:30.094Z,7.97
2022-09-30T03:14:50.274Z,6.88
2022-09-30T03:17:50.722Z,7.45
2022-09-30T03:20:54.474Z,7.30
2022-09-30T03:24:21.248Z,7.20
2022-09-30T03:27:01.941Z,6.95
2022-09-30T03:29:43.680Z,6.85
2022-09-30T03:32:32.225Z,7.15
2022-09-30T03:35:18.108Z,7.65
2022-09-30T03:37:59.620Z,7.20
2022-09-30T03:40:42.766Z,7.68
2022-09-30T03:43:21.558Z,7.93
2022-09-30T03:45:58.447Z,7.38
2022-09-30T03:48:31.033Z,7.32
2022-09-30T03:51:01.553Z,8.15
2022-09-30T03:53:30.305Z,8.68
2022-09-30T03:56:00.218Z,9.18
2022-09-30T03:58:28.875Z,9.50
2022-09-30T04:00:59.105Z,8.23
2022-09-30T04:03:29.460Z,7.75
2022-09-30T04:05:58.154Z,8.43
2022-09-30T04:08:29.866Z,7.60
2022-09-30T04:11:03.277Z,7.50
2022-09-30T04:13:33.813Z,7.50
2022-09-30T04:16:04.216Z,8.13
2022-09-30T04:18:34.709Z,6.97
2022-09-30T04:21:10.894Z,8.30
2022-09-30T04:23:42.510Z,7.63
2022-09-30T04:26:19.825Z,8.63
2022-09-30T04:28:49.064Z,10.30
2022-09-30T04:31:21.633Z,10.02
2022-09-30T04:33:51.477Z,10.23
2022-09-30T04:36:22.902Z,10.23
2022-09-30T04:38:54.456Z,10.45
2022-09-30T04:41:25.905Z,9.63
2022-09-30T04:43:58.617Z,9.73
2022-09-30T04:46:30.059Z,9.75
2022-09-30T04:49:00.106Z,10.68
2022-09-30T04:51:30.691Z,9.60
2022-09-30T04:54:02.820Z,9.68
2022-09-30T04:56:35.463Z,9.20
2022-09-30T04:59:05.554Z,10.45
2022-09-30T05:01:34.625Z,12.45
2022-09-30T05:04:04.921Z,12.90
2022-09-30T05:06:34.474Z,13.10
2022-09-30T05:09:04.711Z,12.18
2022-09-30T05:11:38.173Z,11.82
2022-09-30T05:14:10.100Z,13.50
2022-09-30T05:16:38.746Z,15.25
2022-09-30T05:19:07.843Z,14.52
2022-09-30T05:21:38.037Z,13.90
2022-09-30T05:24:07.802Z,14.15
2022-09-30T05:26:38.722Z,14.48
2022-09-30T05:29:07.825Z,15.05
2022-09-30T05:31:37.430Z,15.23
2022-09-30T05:34:09.684Z,15.35
2022-09-30T05:36:39.974Z,15.63
2022-09-30T05:39:09.484Z,13.88
2022-09-30T05:41:40.338Z,15.02
2022-09-30T05:44:11.070Z,15.63
2022-09-30T05:46:40.620Z,15.32
2022-09-30T05:49:09.864Z,14.45
2022-09-30T05:51:38.745Z,15.10
2022-09-30T05:54:10.833Z,16.10
2022-09-30T05:56:42.664Z,15.45
2022-09-30T05:59:12.287Z,15.32
2022-09-30T06:01:43.387Z,15.65
2022-09-30T06:04:12.037Z,15.88
2022-09-30T06:06:42.166Z,17.42
2022-09-30T06:09:13.882Z,17.90
2022-09-30T06:11:46.052Z,17.92
2022-09-30T06:14:14.735Z,18.65
2022-09-30T06:16:43.929Z,18.73
2022-09-30T06:19:14.675Z,18.17
2022-09-30T06:21:46.707Z,20.13
2022-09-30T06:24:17.241Z,19.48
2022-09-30T06:26:50.069Z,19.13
2022-09-30T06:29:19.554Z,23.63
2022-09-30T06:31:48.832Z,22.30
2022-09-30T06:34:17.431Z,22.02
2022-09-30T06:36:45.906Z,22.13
2022-09-30T06:39:16.254Z,21.88
2022-09-30T06:41:46.870Z,22.17
2022-09-30T06:44:16.279Z,21.80
2022-09-30T06:46:53.493Z,23.10
2022-09-30T06:49:24.934Z,23.25
2022-09-30T06:51:54.532Z,23.90
2022-09-30T06:54:23.909Z,23.90
2022-09-30T06:56:57.424Z,26.70
2022-09-30T06:59:26.960Z,26.90
2022-09-30T07:01:57.287Z,26.05
2022-09-30T07:04:26.043Z,29.27
2022-09-30T07:06:57.298Z,30.45
2022-09-30T07:09:26.759Z,32.22
2022-09-30T07:11:58.001Z,32.88
2022-09-30T07:14:27.007Z,31.95
2022-09-30T07:16:55.748Z,34.03
2022-09-30T07:19:24.526Z,32.30
2022-09-30T07:21:53.149Z,29.35
2022-09-30T07:24:22.462Z,28.55
2022-09-30T07:26:53.993Z,27.65
2022-09-30T07:29:24.189Z,22.25
2022-09-30T07:31:53.358Z,19.42
2022-09-30T07:34:23.833Z,16.05
2022-09-30T07:36:53.850Z,15.20
2022-09-30T07:39:23.330Z,14.90
2022-09-30T07:41:55.082Z,12.35
2022-09-30T07:44:26.532Z,11.48
2022-09-30T07:46:55.962Z,10.88
2022-09-30T07:49:25.872Z,10.20
2022-09-30T07:51:57.166Z,9.30
2022-09-30T07:54:29.394Z,8.55
2022-09-30T07:57:14.915Z,7.78
2022-09-30T07:59:47.927Z,7.70
2022-09-30T08:02:20.750Z,6.90
2022-09-30T08:04:49.739Z,7.00
2022-09-30T08:07:20.090Z,6.50
2022-09-30T08:09:48.805Z,7.72
2022-09-30T08:12:19.194Z,7.32
2022-09-30T08:14:50.917Z,6.97
2022-09-30T08:17:19.503Z,6.82
2022-09-30T08:19:49.209Z,6.40
2022-09-30T08:22:18.075Z,6.80
2022-09-30T08:24:49.466Z,6.85
2022-09-30T08:27:18.812Z,6.60
2022-09-30T08:29:56.606Z,6.28
2022-09-30T08:32:28.030Z,5.55
2022-09-30T08:34:56.912Z,5.90
2022-09-30T08:37:25.781Z,5.10
2022-09-30T08:39:54.691Z,4.97
2022-09-30T08:42:54.202Z,5.18
2022-09-30T08:45:43.187Z,3.92
2022-09-30T08:48:45.819Z,4.10
2022-09-30T08:51:38.418Z,4.25
2022-09-30T08:54:18.221Z,3.40
2022-09-30T08:56:48.795Z,3.63
2022-09-30T08:59:32.477Z,4.03
2022-09-30T09:02:17.575Z,4.13
2022-09-30T09:04:46.983Z,4.95
2022-09-30T09:07:41.464Z,4.30
2022-09-30T09:10:26.203Z,4.35
2022-09-30T09:13:09.449Z,4.10
2022-09-30T09:15:52.265Z,4.18
2022-09-30T09:19:05.085Z,4.00
2022-09-30T09:21:54.261Z,4.40
2022-09-30T09:24:27.117Z,4.90
2022-09-30T09:26:59.532Z,5.03
2022-09-30T09:29:42.771Z,4.55
2022-09-30T09:32:22.066Z,4.80
2022-09-30T09:35:01.152Z,4.28
2022-09-30T09:37:58.573Z,4.38
2022-09-30T09:40:36.231Z,3.60
2022-09-30T09:43:23.882Z,3.75
2022-09-30T09:46:11.012Z,3.80
2022-09-30T09:48:39.766Z,4.20
2022-09-30T09:51:25.396Z,3.83
2022-09-30T09:54:01.533Z,3.67
2022-09-30T09:56:34.985Z,3.83
2022-09-30T09:59:16.940Z,4.20
2022-09-30T10:01:51.198Z,3.53
2022-09-30T10:04:23.878Z,3.90
2022-09-30T10:07:19.052Z,3.83
2022-09-30T10:09:48.172Z,3.80
2022-09-30T10:12:37.485Z,4.10
2022-09-30T10:15:30.907Z,4.05
2022-09-30T10:18:02.524Z,4.22
2022-09-30T10:20:33.783Z,4.25
2022-09-30T10:23:11.941Z,4.38
2022-09-30T10:25:40.970Z,4.20
2022-09-30T10:28:26.451Z,4.78
2022-09-30T10:31:28.698Z,4.50
2022-09-30T10:34:04.633Z,4.65
2022-09-30T10:36:36.858Z,4.82
2022-09-30T10:39:10.119Z,4.22
2022-09-30T10:41:40.303Z,3.83
2022-09-30T10:44:17.888Z,3.58
2022-09-30T10:46:49.746Z,2.85
2022-09-30T10:49:30.003Z,2.67
2022-09-30T10:52:01.268Z,2.38
2022-09-30T10:54:52.188Z,2.85
2022-09-30T10:57:28.819Z,2.50
2022-09-30T11:00:02.320Z,2.15
2022-09-30T11:02:39.061Z,1.75
2022-09-30T11:05:19.399Z,1.50
2022-09-30T11:07:56.737Z,1.50
2022-09-30T11:10:46.682Z,1.52
2022-09-30T11:13:23.782Z,1.40
2022-09-30T11:16:04.727Z,1.60
2022-09-30T11:18:43.726Z,1.30
2022-09-30T11:21:19.831Z,1.42
2022-09-30T11:23:55.408Z,1.60
2022-09-30T11:26:40.895Z,1.70
2022-09-30T11:29:57.613Z,1.38
2022-09-30T11:32:43.178Z,1.20
2022-09-30T11:35:44.691Z,1.17
2022-09-30T11:38:38.018Z,1.15
2022-09-30T11:41:19.295Z,1.33
2022-09-30T11:44:02.882Z,1.10
2022-09-30T11:47:15.853Z,1.20
2022-09-30T11:50:20.790Z,1.17
2022-09-30T11:53:04.096Z,1.20
2022-09-30T11:55:59.066Z,1.00
2022-09-30T11:58:41.634Z,0.90
2022-09-30T12:01:34.080Z,1.20
2022-09-30T12:04:09.811Z,1.48
2022-09-30T12:06:43.613Z,1.63
2022-09-30T12:09:23.523Z,1.30
2022-09-30T12:12:00.014Z,1.13
2022-09-30T12:14:34.797Z,1.02
2022-09-30T12:17:15.477Z,0.98
2022-09-30T12:19:51.279Z,0.70
2022-09-30T12:22:29.593Z,0.80
2022-09-30T12:24:58.474Z,0.93
2022-09-30T12:27:39.844Z,0.93
2022-09-30T12:30:20.684Z,1.38
2022-09-30T12:33:37.202Z,1.00
2022-09-30T12:36:44.638Z,0.93
2022-09-30T12:40:03.103Z,0.85
2022-09-30T12:43:16.198Z,0.93
2022-09-30T12:46:16.714Z,0.80
2022-09-30T12:48:53.773Z,1.30
2022-09-30T12:51:31.741Z,1.38
2022-09-30T12:54:05.895Z,1.10
2022-09-30T12:56:39.224Z,1.23
2022-09-30T12:59:12.726Z,1.17
2022-09-30T13:01:43.503Z,1.20
2022-09-30T13:04:30.910Z,1.45
2022-09-30T13:07:22.118Z,2.30
2022-09-30T13:10:35.161Z,1.95
2022-09-30T13:13:25.334Z,3.10
2022-09-30T13:16:05.500Z,1.48
2022-09-30T13:19:20.946Z,1.80
2022-09-30T13:21:52.207Z,1.58
2022-09-30T13:25:14.239Z,1.30
2022-09-30T13:27:47.299Z,1.80
2022-09-30T13:30:51.537Z,1.60
2022-09-30T13:33:49.457Z,2.00
2022-09-30T13:36:41.933Z,2.08
2022-09-30T13:39:26.330Z,2.40
2022-09-30T13:42:14.085Z,2.92
2022-09-30T13:45:01.987Z,2.90
2022-09-30T13:47:36.594Z,2.80
2022-09-30T13:50:16.927Z,2.53
2022-09-30T13:52:51.729Z,2.50
2022-09-30T13:55:26.108Z,2.60
2022-09-30T13:58:13.514Z,2.58
2022-09-30T14:00:56.383Z,2.60
2022-09-30T14:03:57.756Z,2.35
2022-09-30T14:06:39.708Z,2.45
2022-09-30T14:09:26.528Z,2.65
2022-09-30T14:12:20.399Z,2.35
2022-09-30T14:15:24.704Z,2.05
2022-09-30T14:18:38.209Z,2.65
2022-09-30T14:21:29.214Z,2.53
2022-09-30T14:24:04.132Z,2.60
2022-09-30T14:27:15.773Z,2.85
2022-09-30T14:29:56.572Z,2.50
2022-09-30T14:32:33.082Z,1.90
2022-09-30T14:35:08.125Z,2.03
2022-09-30T14:40:17.044Z,1.80
2022-09-30T14:42:48.086Z,1.92
2022-09-30T14:45:26.806Z,2.20
2022-09-30T14:50:52.098Z,2.30
2022-09-30T14:53:29.825Z,2.33
2022-09-30T14:56:04.780Z,2.22
2022-09-30T14:58:42.696Z,2.50
2022-09-30T15:01:20.536Z,2.40
2022-09-30T15:04:12.478Z,2.55
2022-09-30T15:06:53.171Z,2.28
2022-09-30T15:09:44.400Z,2.33
2022-09-30T15:16:48.574Z,2.20
2022-09-30T15:19:23.795Z,2.55
2022-09-30T15:25:01.662Z,3.08
2022-09-30T15:27:36.238Z,2.90
2022-09-30T15:30:29.501Z,2.53
2022-09-30T15:33:04.752Z,2.40
2022-09-30T15:38:17.426Z,2.63
2022-09-30T15:40:49.260Z,2.58
2022-09-30T15:43:33.265Z,2.72
2022-09-30T15:46:35.364Z,3.17
2022-09-30T15:49:10.263Z,3.30
2022-09-30T15:51:44.440Z,3.17
2022-09-30T15:54:38.019Z,3.80
2022-09-30T15:57:47.352Z,4.00
2022-09-30T16:00:46.961Z,3.78
2022-09-30T16:03:44.197Z,4.35
2022-09-30T16:06:35.615Z,4.32
2022-09-30T16:09:26.014Z,4.43
2022-09-30T16:12:13.058Z,4.68
2022-09-30T16:14:50.747Z,5.13
2022-09-30T16:17:23.090Z,4.75
2022-09-30T16:19:57.539Z,4.65
2022-09-30T16:22:50.390Z,3.88
2022-09-30T16:25:28.232Z,4.63
2022-09-30T16:28:00.594Z,4.45
2022-09-30T16:31:28.425Z,4.22
2022-09-30T16:33:57.404Z,3.80
2022-09-30T16:36:31.733Z,4.53
2022-09-30T16:39:00.498Z,3.60
2022-09-30T16:41:30.228Z,4.35
2022-09-30T16:43:58.902Z,4.03
2022-09-30T16:46:27.508Z,4.32
2022-09-30T16:48:59.016Z,4.15
2022-09-30T16:51:28.528Z,3.72
2022-09-30T16:53:57.461Z,3.80
2022-09-30T16:56:26.519Z,4.70
2022-09-30T16:58:56.884Z,4.35
2022-09-30T17:01:28.437Z,4.65
2022-09-30T17:03:58.563Z,4.05
2022-09-30T17:06:30.544Z,4.03
2022-09-30T17:09:01.221Z,3.80
2022-09-30T17:12:29.573Z,4.13
2022-09-30T17:15:02.598Z,4.50
2022-09-30T17:17:31.080Z,4.53
2022-09-30T17:19:59.445Z,4.53
2022-09-30T17:22:27.815Z,3.55
2022-09-30T17:24:56.223Z,3.80
2022-09-30T17:27:24.869Z,3.53
2022-09-30T17:29:53.411Z,3.95
2022-09-30T17:32:28.487Z,3.70
2022-09-30T17:35:01.273Z,3.80
2022-09-30T17:37:35.056Z,4.57
2022-09-30T17:40:26.302Z,4.53
2022-09-30T17:43:11.362Z,3.70
2022-09-30T17:45:43.496Z,4.60
2022-09-30T17:48:16.494Z,3.92
2022-09-30T17:50:49.394Z,4.30
2022-09-30T17:53:20.025Z,4.05
2022-09-30T17:56:04.156Z,4.45
2022-09-30T17:58:37.663Z,3.72
2022-09-30T18:01:09.949Z,4.10
2022-09-30T18:03:42.546Z,4.10
2022-09-30T18:06:17.875Z,4.20
2022-09-30T18:08:53.824Z,3.92
2022-09-30T18:11:29.828Z,4.10
2022-09-30T18:14:08.253Z,4.22
2022-09-30T18:17:57.935Z,4.45
2022-09-30T18:20:45.630Z,4.72
2022-09-30T18:23:16.841Z,4.65
2022-09-30T18:25:46.976Z,5.30
2022-09-30T18:28:16.342Z,5.80
2022-09-30T18:30:46.706Z,4.05
2022-09-30T18:33:17.525Z,4.82
2022-09-30T18:35:48.152Z,4.65
2022-09-30T18:38:20.212Z,4.47
2022-09-30T18:40:50.484Z,4.20
2022-09-30T18:43:20.720Z,4.47
2022-09-30T18:46:02.429Z,6.03
2022-09-30T18:48:33.353Z,4.80
2022-09-30T18:51:06.402Z,8.43
2022-09-30T18:53:35.622Z,6.20
2022-09-30T18:56:09.990Z,5.50
2022-09-30T18:58:40.359Z,4.80
2022-09-30T19:01:08.793Z,4.45
2022-09-30T19:03:37.860Z,4.00
2022-09-30T19:06:10.935Z,5.07
2022-09-30T19:08:39.358Z,5.25
2022-09-30T19:11:13.952Z,4.10
2022-09-30T19:13:44.094Z,4.13
2022-09-30T19:16:17.563Z,4.38
2022-09-30T19:18:47.022Z,3.70
2022-09-30T19:21:21.287Z,3.85
2022-09-30T19:23:52.538Z,4.35
2022-09-30T19:30:28.656Z,5.68
2022-09-30T19:32:59.223Z,5.00
2022-09-30T19:35:37.784Z,4.38
2022-09-30T19:38:15.183Z,4.40
2022-09-30T19:40:46.832Z,3.75
2022-09-30T19:43:19.220Z,3.20
2022-09-30T19:45:56.484Z,3.75
2022-09-30T19:48:27.581Z,3.53
2022-09-30T19:51:02.278Z,4.45
2022-09-30T19:53:34.841Z,4.45
2022-09-30T19:56:12.501Z,3.90
2022-09-30T19:58:43.423Z,4.18
2022-09-30T20:01:14.728Z,3.28
2022-09-30T20:03:53.267Z,3.60
2022-09-30T20:06:23.509Z,3.22
2022-09-30T20:08:57.301Z,3.60
2022-09-30T20:12:30.514Z,3.10
2022-09-30T20:15:16.675Z,3.35
2022-09-30T20:20:45.520Z,3.17
2022-09-30T20:23:14.717Z,3.33
2022-09-30T20:25:44.514Z,3.85
2022-09-30T20:28:12.937Z,3.20
2022-09-30T20:30:47.108Z,3.17
2022-09-30T20:33:18.783Z,3.40
2022-09-30T20:35:48.341Z,3.50
2022-09-30T20:38:20.076Z,3.67
2022-09-30T20:40:55.517Z,3.40
2022-09-30T20:45:56.824Z,3.33
2022-09-30T20:48:27.105Z,3.38
2022-09-30T20:50:58.345Z,3.65
2022-09-30T20:53:26.967Z,3.10
2022-09-30T20:56:02.662Z,3.13
2022-09-30T20:58:31.266Z,3.05
2022-09-30T21:01:03.349Z,2.95
2022-09-30T21:03:34.722Z,3.10
2022-09-30T21:06:03.097Z,3.22
2022-09-30T21:08:32.765Z,3.22
2022-09-30T21:11:05.084Z,3.08
2022-09-30T21:13:33.685Z,4.47
2022-09-30T21:16:04.023Z,3.85
2022-09-30T21:18:33.760Z,3.55
2022-09-30T21:21:03.754Z,3.50
2022-09-30T21:23:35.584Z,2.95
2022-09-30T21:26:08.290Z,3.05
2022-09-30T21:28:37.347Z,3.08
2022-09-30T21:31:08.041Z,3.60
2022-09-30T21:33:37.392Z,3.25
2022-09-30T21:36:07.619Z,3.28
2022-09-30T21:38:39.301Z,3.40
2022-09-30T21:41:09.801Z,3.35
2022-09-30T21:43:40.020Z,3.00
2022-09-30T21:46:11.449Z,3.65
2022-09-30T21:48:40.188Z,3.60
2022-09-30T21:51:09.814Z,3.83
2022-09-30T21:53:39.432Z,3.67
2022-09-30T21:56:11.562Z,4.60
2022-09-30T21:58:39.947Z,3.47
2022-09-30T22:01:08.954Z,3.88
2022-09-30T22:03:40.561Z,4.15
2022-09-30T22:06:11.379Z,4.30
2022-09-30T22:08:41.136Z,4.00
2022-09-30T22:11:13.337Z,4.10
2022-09-30T22:14:34.489Z,4.80
2022-09-30T22:17:08.346Z,4.78
2022-09-30T22:19:38.979Z,5.03
2022-09-30T22:22:10.617Z,5.05
2022-09-30T22:24:39.355Z,5.30
2022-09-30T22:27:10.270Z,5.50
2022-09-30T22:29:41.968Z,5.18
2022-09-30T22:32:10.894Z,5.63
2022-09-30T22:34:57.406Z,5.53
2022-09-30T22:37:43.447Z,5.85
2022-09-30T22:40:12.229Z,5.57
2022-09-30T22:47:04.753Z,6.05
2022-09-30T22:49:33.257Z,6.43
2022-09-30T22:52:03.737Z,6.78
2022-09-30T22:54:32.268Z,6.57
2022-09-30T22:57:00.591Z,7.45
2022-09-30T22:59:30.402Z,7.25
2022-09-30T23:02:00.818Z,7.38
2022-09-30T23:04:29.244Z,7.57
2022-09-30T23:06:57.659Z,7.55
2022-09-30T23:09:26.445Z,7.60
2022-09-30T23:11:57.079Z,7.72
2022-09-30T23:14:26.286Z,8.02
2022-09-30T23:16:54.851Z,7.70
2022-09-30T23:19:24.895Z,8.38
2022-09-30T23:21:53.589Z,9.13
2022-09-30T23:24:22.004Z,9.35
2022-09-30T23:26:50.393Z,8.88
2022-09-30T23:29:19.063Z,10.48
2022-09-30T23:31:48.165Z,9.98
2022-09-30T23:34:18.937Z,10.02
2022-09-30T23:36:48.849Z,10.00
2022-09-30T23:39:20.165Z,10.85
2022-09-30T23:41:49.888Z,10.95
2022-09-30T23:44:19.276Z,11.30
2022-09-30T23:47:02.447Z,10.77
2022-09-30T23:49:35.709Z,10.70
2022-09-30T23:52:10.479Z,10.82
2022-09-30T23:54:41.744Z,12.05
2022-09-30T23:57:10.625Z,11.70
2022-09-30T23:59:39.023Z,11.05
